Time;durP1;ratioP1;P1;durP2;ratioP2;P2;SDS_P1;SDS_P2;PMS_P1;PMS_P2;Temp;Humidity;BMP_temperature;BMP_pressure;BME280_temperature;BME280_humidity;BME280_pressure;Samples;Min_cycle;Max_cycle;Signal;HPM_P1;HPM_P2
2021/01/01 00:00:09;;;;;;;50.30;20.12;;;;;;;0.18;84.23;98149.55;2161290;82;21285;-67
2021/01/01 00:03:13;;;;;;;46.83;18.55;;;;;;;0.29;84.16;98148.33;2161322;82;21132;-65
2021/01/01 00:06:16;;;;;;;50.03;20.20;;;;;;;0.29;83.69;98150.91;2161442;82;21701;-65
2021/01/01 00:09:18;;;;;;;41.85;16.02;;;;;;;0.36;83.67;98145.12;2161204;82;21279;-66
2021/01/01 00:12:20;;;;;;;43.75;15.85;;;;;;;0.34;83.49;98148.18;2161425;82;21713;-65
2021/01/01 00:15:22;;;;;;;39.50;14.53;;;;;;;0.22;83.05;98149.41;2161249;82;21277;-66
2021/01/01 00:18:24;;;;;;;40.25;14.23;;;;;;;0.23;83.49;98154.97;2161622;82;21285;-65
2021/01/01 00:21:26;;;;;;;38.25;14.78;;;;;;;0.26;83.42;98156.16;2161430;82;21269;-65
2021/01/01 00:24:28;;;;;;;42.48;16.30;;;;;;;0.29;83.26;98154.78;2177630;81;21155;-66
2021/01/01 00:27:30;;;;;;;37.25;13.88;;;;;;;0.32;83.34;98154.68;2178565;82;21308;-65
2021/01/01 00:30:33;;;;;;;35.65;13.58;;;;;;;0.34;82.83;98160.66;2178550;82;21260;-70
2021/01/01 00:33:35;;;;;;;41.50;14.38;;;;;;;0.38;83.01;98158.81;2178701;82;21692;-66
2021/01/01 00:36:37;;;;;;;43.30;16.25;;;;;;;0.37;82.79;98158.86;2178700;82;21733;-69
2021/01/01 00:39:39;;;;;;;36.15;13.20;;;;;;;0.53;83.15;98159.23;2179100;82;21130;-68
2021/01/01 00:42:43;;;;;;;40.20;15.05;;;;;;;0.51;82.26;98159.28;2178600;82;21130;-65
2021/01/01 00:45:46;;;;;;;42.80;15.68;;;;;;;0.42;82.49;98160.41;2178608;82;21752;-67
2021/01/01 00:48:48;;;;;;;40.65;14.65;;;;;;;0.33;82.47;98165.41;2178713;82;21293;-65
2021/01/01 00:51:50;;;;;;;43.28;17.12;;;;;;;0.27;82.88;98160.86;2178841;82;21127;-66
2021/01/01 00:54:52;;;;;;;43.30;15.32;;;;;;;0.28;83.25;98164.69;2178853;82;21161;-67
2021/01/01 00:57:55;;;;;;;39.03;14.45;;;;;;;0.33;82.95;98165.41;2178604;81;21273;-69
2021/01/01 01:00:59;;;;;;;37.23;12.98;;;;;;;0.39;83.04;98171.25;2178574;82;21713;-67
2021/01/01 01:04:01;;;;;;;37.48;14.40;;;;;;;0.42;82.60;98166.03;2178709;82;21728;-66
2021/01/01 01:07:03;;;;;;;43.05;14.07;;;;;;;0.38;82.63;98172.17;2179081;82;21178;-67
2021/01/01 01:10:06;;;;;;;39.70;13.58;;;;;;;0.36;82.69;98167.48;2178518;82;21166;-66
2021/01/01 01:13:09;;;;;;;39.65;14.68;;;;;;;0.31;82.60;98172.78;2178550;82;21582;-66
2021/01/01 01:16:11;;;;;;;42.33;16.10;;;;;;;0.30;82.65;98171.09;2178555;82;21272;-66
2021/01/01 01:19:13;;;;;;;38.15;13.78;;;;;;;0.26;83.12;98174.64;2178838;82;21709;-65
2021/01/01 01:22:15;;;;;;;38.17;12.35;;;;;;;0.24;82.47;98175.98;2176887;81;21301;-65
2021/01/01 01:25:18;;;;;;;36.10;13.18;;;;;;;0.26;82.61;98178.09;2161290;82;21532;-65
2021/01/01 01:28:20;;;;;;;;;;;;;;;0.26;82.61;98178.09;2163763;82;21729;-66
2021/01/01 01:31:22;;;;;;;36.13;12.53;;;;;;;0.19;82.47;98171.84;2161222;82;20170;-66
2021/01/01 01:34:24;;;;;;;37.17;13.32;;;;;;;0.14;82.67;98176.72;2161141;82;21151;-65
2021/01/01 01:37:27;;;;;;;44.83;16.10;;;;;;;0.13;82.77;98174.16;2161373;82;21322;-66
2021/01/01 01:40:29;;;;;;;36.75;14.05;;;;;;;0.14;83.02;98170.70;2161357;82;21290;-68
2021/01/01 01:43:31;;;;;;;39.98;15.10;;;;;;;0.25;83.12;98176.39;2161145;82;21100;-65
2021/01/01 01:46:33;;;;;;;40.90;15.53;;;;;;;0.28;82.79;98173.72;2161596;82;21309;-69
2021/01/01 01:49:35;;;;;;;43.33;16.57;;;;;;;0.24;82.61;98175.15;2161368;82;21337;-66
2021/01/01 01:52:37;;;;;;;42.13;15.48;;;;;;;0.23;82.85;98179.90;2161343;82;21591;-67
2021/01/01 01:55:39;;;;;;;45.28;16.32;;;;;;;0.25;82.80;98184.12;2161136;82;21139;-66
2021/01/01 01:58:42;;;;;;;42.23;15.53;;;;;;;0.23;82.74;98178.19;2161452;82;21689;-65
2021/01/01 02:01:44;;;;;;;40.92;15.88;;;;;;;0.22;82.87;98180.36;2161578;82;21280;-64
2021/01/01 02:04:46;;;;;;;46.58;17.67;;;;;;;0.34;82.88;98177.42;2161102;82;21103;-65
2021/01/01 02:07:48;;;;;;;45.15;16.70;;;;;;;0.34;82.88;98177.42;2161294;82;21721;-65
2021/01/01 02:10:50;;;;;;;52.40;18.37;;;;;;;0.35;82.62;98179.55;2161098;82;21107;-65
2021/01/01 02:13:53;;;;;;;50.92;17.15;;;;;;;0.41;82.89;98178.06;2140264;82;21262;-66
2021/01/01 02:16:55;;;;;;;50.25;17.65;;;;;;;0.41;82.78;98179.81;2140460;82;21309;-64
2021/01/01 02:19:57;;;;;;;53.45;18.17;;;;;;;0.39;82.38;98178.57;2161350;82;21250;-65
2021/01/01 02:22:59;;;;;;;50.63;17.87;;;;;;;0.37;82.40;98179.05;2161432;82;21282;-66
2021/01/01 02:26:01;;;;;;;48.75;18.00;;;;;;;0.32;82.20;98183.06;2161344;82;21296;-66
2021/01/01 02:29:03;;;;;;;50.67;18.27;;;;;;;0.32;82.37;98180.94;2161458;82;21285;-65
2021/01/01 02:32:06;;;;;;;52.98;18.37;;;;;;;0.25;82.41;98178.14;2161092;82;21163;-66
2021/01/01 02:35:08;;;;;;;46.30;16.82;;;;;;;0.30;82.58;98179.69;2161582;82;21277;-65
2021/01/01 02:38:10;;;;;;;;;;;;;;;0.30;82.17;98174.95;2163520;82;21175;-65
2021/01/01 02:41:13;;;;;;;46.10;16.50;;;;;;;0.16;82.37;98174.93;2161241;82;20234;-73
2021/01/01 02:44:15;;;;;;;49.48;17.57;;;;;;;0.10;82.38;98178.13;2161335;82;21285;-65
2021/01/01 02:47:19;;;;;;;47.00;16.67;;;;;;;0.05;82.53;98176.97;2139709;82;21270;-66
2021/01/01 02:50:22;;;;;;;47.17;15.88;;;;;;;0.00;82.60;98176.28;2161167;82;21697;-65
2021/01/01 02:53:24;;;;;;;45.38;17.27;;;;;;;-0.03;82.57;98174.63;2161080;82;21099;-65
2021/01/01 02:56:26;;;;;;;45.03;15.23;;;;;;;-0.10;82.51;98175.69;2161141;82;21587;-67
2021/01/01 02:59:29;;;;;;;;;;;;;;;-0.09;82.88;98172.20;2163498;82;21143;-65
2021/01/01 03:02:32;;;;;;;46.45;15.50;;;;;;;-0.02;82.80;98170.30;2140016;82;20449;-65
2021/01/01 03:05:34;;;;;;;44.67;15.58;;;;;;;0.05;82.71;98174.84;2161290;82;21276;-65
2021/01/01 03:08:36;;;;;;;44.83;15.88;;;;;;;0.07;82.62;98174.34;2161239;82;21317;-65
2021/01/01 03:11:38;;;;;;;40.48;14.65;;;;;;;0.05;82.19;98173.56;2161066;82;21127;-64
2021/01/01 03:14:40;;;;;;;41.23;14.13;;;;;;;-0.01;82.16;98165.55;2161071;82;21151;-67
2021/01/01 03:17:42;;;;;;;40.12;14.70;;;;;;;-0.13;82.09;98168.47;2161098;82;21131;-65
2021/01/01 03:20:45;;;;;;;41.20;15.43;;;;;;;-0.08;82.30;98168.74;2160921;82;21167;-68
2021/01/01 03:23:47;;;;;;;51.77;17.62;;;;;;;-0.19;82.10;98166.48;2161137;81;21598;-68
2021/01/01 03:26:49;;;;;;;44.35;15.70;;;;;;;-0.10;82.73;98169.66;2161528;82;21261;-67
2021/01/01 03:29:52;;;;;;;44.77;16.30;;;;;;;-0.18;82.16;98167.31;2161220;82;21756;-67
2021/01/01 03:32:54;;;;;;;46.05;15.78;;;;;;;-0.25;82.52;98169.66;2161026;82;21131;-65
2021/01/01 03:35:56;;;;;;;44.27;16.07;;;;;;;-0.24;82.70;98170.07;2161633;82;21269;-64
2021/01/01 03:38:58;;;;;;;47.53;17.10;;;;;;;-0.22;82.61;98178.59;2161389;82;21277;-64
2021/01/01 03:42:00;;;;;;;44.15;16.15;;;;;;;-0.25;82.77;98177.39;2161364;82;21285;-64
2021/01/01 03:45:02;;;;;;;54.25;19.75;;;;;;;-0.22;82.82;98173.44;2161479;82;21302;-66
2021/01/01 03:48:05;;;;;;;42.90;15.65;;;;;;;-0.15;82.76;98168.52;2161225;82;21163;-67
2021/01/01 03:51:07;;;;;;;42.85;16.12;;;;;;;-0.11;82.70;98165.42;2161342;82;21730;-68
2021/01/01 03:54:09;;;;;;;43.23;16.42;;;;;;;-0.09;82.63;98164.47;2161682;82;21310;-67
2021/01/01 03:57:12;;;;;;;42.00;15.40;;;;;;;-0.08;82.58;98165.33;2161474;82;21682;-65
2021/01/01 04:00:14;;;;;;;;;;;;;;;-0.08;82.57;98167.45;2164071;82;21150;-64
2021/01/01 04:03:17;;;;;;;47.47;17.07;;;;;;;-0.06;82.71;98167.41;2161727;82;20226;-65
2021/01/01 04:06:19;;;;;;;49.38;17.80;;;;;;;-0.05;82.66;98166.07;2161227;82;21265;-65
2021/01/01 04:09:21;;;;;;;45.78;16.85;;;;;;;0.01;82.70;98168.92;2161304;82;21591;-64
2021/01/01 04:12:23;;;;;;;45.85;16.20;;;;;;;0.06;82.66;98168.36;2161213;82;21294;-65
2021/01/01 04:15:25;;;;;;;43.42;15.93;;;;;;;0.10;82.34;98164.80;2161342;82;21297;-65
2021/01/01 04:18:27;;;;;;;44.20;15.83;;;;;;;0.07;82.11;98165.32;2161690;82;21289;-65
2021/01/01 04:21:29;;;;;;;39.10;13.95;;;;;;;0.05;82.19;98169.23;2161320;82;21277;-67
2021/01/01 04:24:31;;;;;;;40.83;13.85;;;;;;;0.01;81.96;98171.50;2171329;82;21292;-64
2021/01/01 04:27:34;;;;;;;45.38;15.50;;;;;;;0.02;82.11;98168.50;2178860;82;21138;-65
2021/01/01 04:30:36;;;;;;;39.88;13.80;;;;;;;-0.01;81.99;98170.25;2178837;82;21344;-64
2021/01/01 04:33:38;;;;;;;39.65;14.00;;;;;;;-0.04;81.71;98174.67;2178750;82;21698;-65
2021/01/01 04:36:40;;;;;;;36.25;13.13;;;;;;;-0.09;81.96;98177.35;2178846;82;21562;-64
2021/01/01 04:39:43;;;;;;;39.05;13.75;;;;;;;-0.11;82.10;98175.73;2178570;82;21736;-64
2021/01/01 04:42:46;;;;;;;39.40;14.00;;;;;;;-0.19;81.56;98183.23;2179074;82;21289;-64
2021/01/01 04:45:48;;;;;;;39.20;13.72;;;;;;;-0.27;81.98;98185.63;2178712;82;21725;-65
2021/01/01 04:48:50;;;;;;;35.88;12.28;;;;;;;-0.21;82.27;98183.70;2178556;82;21150;-64
2021/01/01 04:51:52;;;;;;;41.85;13.93;;;;;;;-0.29;81.89;98187.38;2179043;82;21134;-64
2021/01/01 04:54:54;;;;;;;53.02;23.75;;;;;;;-0.31;82.31;98189.17;2178731;82;21716;-64
2021/01/01 04:57:56;;;;;;;46.95;16.32;;;;;;;-0.24;82.39;98182.50;2178560;82;21273;-65
2021/01/01 05:00:58;;;;;;;42.03;14.53;;;;;;;-0.24;82.28;98185.08;2179026;82;21288;-65
2021/01/01 05:04:00;;;;;;;39.30;14.38;;;;;;;-0.18;82.48;98187.48;2178740;82;21297;-66
2021/01/01 05:07:02;;;;;;;40.65;14.60;;;;;;;-0.15;82.13;98188.30;2179083;82;21289;-64
2021/01/01 05:10:06;;;;;;;45.35;15.68;;;;;;;-0.21;81.91;98193.18;2178547;82;21304;-65
2021/01/01 05:13:09;;;;;;;47.27;17.20;;;;;;;-0.42;82.07;98200.58;2178490;82;21265;-64
2021/01/01 05:16:11;;;;;;;47.78;17.55;;;;;;;-0.32;82.59;98200.36;2179071;82;21150;-65
2021/01/01 05:19:13;;;;;;;45.95;18.00;;;;;;;-0.26;82.40;98201.47;2178838;82;21132;-65
2021/01/01 05:22:16;;;;;;;44.33;15.63;;;;;;;-0.28;82.26;98198.11;2178816;82;21174;-65
2021/01/01 05:25:19;;;;;;;47.62;16.10;;;;;;;-0.32;82.20;98208.92;2165427;81;21139;-68
2021/01/01 05:28:21;;;;;;;45.65;16.37;;;;;;;-0.22;82.50;98205.66;2161596;82;21293;-70
2021/01/01 05:31:23;;;;;;;41.65;14.53;;;;;;;-0.16;82.18;98201.62;2161401;82;21263;-67
2021/01/01 05:34:25;;;;;;;47.05;15.88;;;;;;;-0.14;82.20;98207.59;2161595;82;21305;-66
2021/01/01 05:37:27;;;;;;;50.12;16.70;;;;;;;-0.04;82.32;98213.34;2161354;82;21701;-67
2021/01/01 05:40:30;;;;;;;46.75;15.53;;;;;;;0.01;82.03;98213.21;2161590;82;21277;-68
2021/01/01 05:43:32;;;;;;;48.15;17.07;;;;;;;-0.01;81.91;98217.13;2161511;82;21310;-65
2021/01/01 05:46:34;;;;;;;44.90;15.68;;;;;;;-0.05;81.89;98227.95;2161364;82;21265;-71
2021/01/01 05:49:36;;;;;;;44.25;16.12;;;;;;;-0.04;82.05;98227.07;2161528;82;21301;-67
2021/01/01 05:52:38;;;;;;;43.13;14.93;;;;;;;-0.03;81.90;98226.19;2161184;82;21309;-68
2021/01/01 05:55:41;;;;;;;49.18;16.90;;;;;;;-0.06;81.80;98231.44;2161613;82;21333;-67
2021/01/01 05:58:43;;;;;;;50.45;16.48;;;;;;;-0.09;82.17;98232.78;2140271;82;21266;-69
2021/01/01 06:01:45;;;;;;;49.88;16.65;;;;;;;-0.09;81.94;98227.63;2161572;82;21302;-65
2021/01/01 06:04:47;;;;;;;48.45;17.50;;;;;;;-0.09;82.04;98231.50;2161364;82;21135;-70
2021/01/01 06:07:49;;;;;;;44.05;15.30;;;;;;;0.05;82.12;98231.58;2161275;82;21571;-69
2021/01/01 06:10:51;;;;;;;43.68;14.25;;;;;;;0.12;82.03;98222.78;2161314;82;21273;-69
2021/01/01 06:13:53;;;;;;;43.92;14.75;;;;;;;0.09;81.61;98224.16;2161310;82;21702;-69
2021/01/01 06:16:55;;;;;;;43.25;14.98;;;;;;;0.10;81.53;98220.25;2161560;82;21159;-68
2021/01/01 06:19:58;;;;;;;45.63;17.42;;;;;;;0.04;81.43;98226.02;2161237;82;21710;-65
2021/01/01 06:23:00;;;;;;;53.33;20.95;;;;;;;-0.07;81.43;98228.45;2161548;82;21135;-64
2021/01/01 06:26:03;;;;;;;39.75;12.90;;;;;;;-0.12;81.36;98220.44;2169996;81;21610;-65
2021/01/01 06:29:05;;;;;;;37.48;13.35;;;;;;;-0.18;81.55;98226.15;2171240;81;21309;-64
2021/01/01 06:32:07;;;;;;;35.40;13.05;;;;;;;-0.15;81.47;98226.97;2171426;81;21709;-64
2021/01/01 06:35:09;;;;;;;41.20;13.22;;;;;;;-0.22;81.64;98219.84;2171259;81;21264;-64
2021/01/01 06:38:11;;;;;;;33.98;12.07;;;;;;;-0.19;81.55;98229.64;2171464;82;21273;-64
2021/01/01 06:41:14;;;;;;;39.45;13.85;;;;;;;-0.25;81.48;98236.22;2171219;82;21264;-64
2021/01/01 06:44:16;;;;;;;40.40;14.63;;;;;;;-0.23;82.04;98231.89;2171727;82;21130;-64
2021/01/01 06:47:18;;;;;;;39.65;13.95;;;;;;;-0.16;81.58;98226.56;2171427;82;21714;-64
2021/01/01 06:50:20;;;;;;;42.13;14.63;;;;;;;-0.28;81.68;98226.00;2171211;81;21272;-65
2021/01/01 06:53:22;;;;;;;40.67;13.40;;;;;;;-0.36;81.56;98226.22;2171626;81;21280;-64
2021/01/01 06:56:24;;;;;;;43.80;14.30;;;;;;;-0.43;81.96;98234.13;2171244;81;21278;-65
2021/01/01 06:59:26;;;;;;;39.58;14.33;;;;;;;-0.41;82.18;98236.23;2171444;81;21285;-64
2021/01/01 07:02:28;;;;;;;41.60;15.18;;;;;;;-0.33;82.20;98239.89;2171703;82;21144;-65
2021/01/01 07:05:31;;;;;;;43.17;14.15;;;;;;;-0.32;82.03;98235.98;2171356;82;21717;-65
2021/01/01 07:08:33;;;;;;;40.23;13.43;;;;;;;-0.36;81.74;98238.23;2171453;82;21725;-64
2021/01/01 07:11:35;;;;;;;40.35;14.23;;;;;;;-0.43;81.73;98239.28;2171544;81;21623;-64
2021/01/01 07:14:37;;;;;;;42.48;13.95;;;;;;;-0.39;82.17;98243.47;2171594;81;21151;-64
2021/01/01 07:17:39;;;;;;;42.70;15.18;;;;;;;-0.32;81.93;98246.30;2171458;81;21709;-64
2021/01/01 07:20:43;;;;;;;42.53;15.03;;;;;;;-0.37;81.58;98249.45;2171184;81;21262;-66
2021/01/01 07:23:45;;;;;;;37.98;13.48;;;;;;;-0.35;82.13;98254.11;2170693;81;21298;-65
2021/01/01 07:26:48;;;;;;;40.92;13.85;;;;;;;-0.43;81.80;98255.61;2161208;82;21127;-64
2021/01/01 07:29:50;;;;;;;38.05;13.62;;;;;;;-0.49;81.85;98252.33;2160977;82;21123;-64
2021/01/01 07:32:52;;;;;;;41.18;13.88;;;;;;;-0.53;82.06;98251.12;2161180;82;21683;-64
2021/01/01 07:35:54;;;;;;;39.58;14.23;;;;;;;-0.45;82.37;98252.66;2140138;82;21290;-66
2021/01/01 07:38:56;;;;;;;41.98;14.65;;;;;;;-0.43;82.23;98256.90;2161267;82;21713;-65
2021/01/01 07:41:59;;;;;;;46.50;17.55;;;;;;;-0.32;82.59;98256.60;2161194;82;21299;-67
2021/01/01 07:45:01;;;;;;;44.23;16.82;;;;;;;-0.12;82.27;98262.52;2161085;82;21265;-66
2021/01/01 07:48:03;;;;;;;46.10;16.87;;;;;;;-0.11;81.87;98263.39;2161249;82;21726;-64
2021/01/01 07:51:05;;;;;;;43.95;15.50;;;;;;;-0.19;81.56;98257.99;2161270;82;21313;-66
2021/01/01 07:54:07;;;;;;;39.90;14.28;;;;;;;-0.29;81.68;98264.25;2161275;82;21579;-64
2021/01/01 07:57:10;;;;;;;42.40;13.85;;;;;;;-0.41;81.68;98258.98;2161031;82;21123;-72
2021/01/01 08:00:14;;;;;;;41.37;13.90;;;;;;;-0.38;81.82;98264.50;2160997;82;21774;-65
2021/01/01 08:03:17;;;;;;;41.60;14.47;;;;;;;-0.39;81.80;98264.09;2161257;82;21143;-65
2021/01/01 08:06:19;;;;;;;37.90;13.95;;;;;;;-0.44;81.64;98270.66;2161043;82;21099;-66
2021/01/01 08:09:22;;;;;;;40.23;14.23;;;;;;;-0.48;81.69;98262.59;2161298;82;21301;-64
2021/01/01 08:12:24;;;;;;;42.25;14.15;;;;;;;-0.54;81.68;98270.03;2161176;82;21729;-66
2021/01/01 08:15:26;;;;;;;44.77;15.58;;;;;;;-0.59;81.81;98272.31;2161268;82;21694;-69
2021/01/01 08:18:32;;;;;;;44.60;15.90;;;;;;;-0.64;82.02;98266.45;2160891;82;21135;-67
2021/01/01 08:21:34;;;;;;;43.75;16.10;;;;;;;-0.64;82.14;98279.33;2161055;82;21610;-67
2021/01/01 08:24:36;;;;;;;44.55;16.48;;;;;;;-0.59;82.38;98285.20;2165291;81;21649;-64
2021/01/01 08:27:38;;;;;;;48.45;16.87;;;;;;;-0.50;82.41;98281.13;2178831;82;21574;-64
2021/01/01 08:30:41;;;;;;;44.93;16.12;;;;;;;-0.41;82.52;98278.76;2178814;82;21574;-65
2021/01/01 08:33:43;;;;;;;44.60;16.50;;;;;;;-0.28;82.43;98280.58;2178617;82;21133;-64
2021/01/01 08:36:45;;;;;;;44.75;16.25;;;;;;;-0.32;81.87;98284.12;2178658;82;21721;-66
2021/01/01 08:39:47;;;;;;;45.80;16.45;;;;;;;-0.30;81.97;98282.33;2178811;82;21158;-66
2021/01/01 08:42:50;;;;;;;40.12;13.95;;;;;;;-0.29;81.88;98287.90;2178736;82;21285;-65
2021/01/01 08:45:52;;;;;;;39.10;14.10;;;;;;;-0.32;81.73;98281.09;2178858;82;21103;-67
2021/01/01 08:48:54;;;;;;;40.03;14.33;;;;;;;-0.32;81.59;98286.70;2178681;82;21273;-64
2021/01/01 08:51:56;;;;;;;41.50;13.95;;;;;;;-0.37;81.77;98295.39;2178942;82;21174;-64
2021/01/01 08:54:58;;;;;;;36.03;12.80;;;;;;;-0.29;81.83;98286.61;2179092;82;21134;-65
2021/01/01 08:58:00;;;;;;;38.20;14.43;;;;;;;-0.28;81.42;98296.05;2178845;82;21171;-65
2021/01/01 09:01:03;;;;;;;41.08;14.40;;;;;;;-0.29;81.78;98308.52;2178812;82;21673;-65
2021/01/01 09:04:05;;;;;;;39.78;14.10;;;;;;;-0.32;81.87;98303.45;2179066;82;21155;-65
2021/01/01 09:07:07;;;;;;;41.58;15.20;;;;;;;-0.29;81.52;98295.63;2178577;82;21135;-65
2021/01/01 09:10:10;;;;;;;46.42;15.10;;;;;;;-0.28;81.85;98299.91;2178717;82;21724;-67
2021/01/01 09:13:12;;;;;;;41.85;15.75;;;;;;;-0.17;81.79;98297.91;2179068;82;21129;-65
2021/01/01 09:16:14;;;;;;;43.23;16.10;;;;;;;-0.07;81.40;98295.91;2178587;82;21272;-65
2021/01/01 09:19:16;;;;;;;43.23;16.10;;;;;;;-0.05;81.61;98302.72;2178811;82;21272;-64
2021/01/01 09:22:18;;;;;;;36.50;13.18;;;;;;;-0.05;81.41;98302.72;2179050;82;21162;-65
2021/01/01 09:25:21;;;;;;;36.42;13.40;;;;;;;-0.03;81.16;98297.52;2178395;82;21740;-65
2021/01/01 09:28:24;;;;;;;39.55;13.50;;;;;;;0.00;81.17;98302.63;2178657;82;21805;-65
2021/01/01 09:31:26;;;;;;;39.60;13.53;;;;;;;0.05;81.17;98296.05;2178910;82;21162;-64
2021/01/01 09:34:28;;;;;;;37.75;13.30;;;;;;;0.07;81.10;98300.71;2178638;82;21602;-64
2021/01/01 09:37:30;;;;;;;43.73;17.77;;;;;;;0.06;80.77;98303.74;2178569;82;21272;-64
2021/01/01 09:40:34;;;;;;;42.33;15.53;;;;;;;-0.04;81.16;98303.14;2178766;82;21725;-64
2021/01/01 09:43:36;;;;;;;37.83;13.98;;;;;;;0.00;81.26;98298.77;2178411;82;21272;-65
2021/01/01 09:46:38;;;;;;;35.95;13.13;;;;;;;0.05;81.20;98297.34;2178544;82;21121;-64
2021/01/01 09:49:41;;;;;;;36.35;13.00;;;;;;;0.10;80.86;98297.62;2178967;82;21305;-65
2021/01/01 09:52:43;;;;;;;39.05;14.68;;;;;;;0.09;80.89;98297.20;2178807;82;21269;-65
2021/01/01 09:55:45;;;;;;;37.65;13.13;;;;;;;0.15;81.13;98300.91;2178993;82;21166;-65
2021/01/01 09:58:47;;;;;;;39.05;14.03;;;;;;;0.27;80.83;98299.71;2178725;82;21697;-65
2021/01/01 10:01:50;;;;;;;43.58;14.85;;;;;;;0.41;81.29;98298.50;2178517;82;21257;-66
2021/01/01 10:04:52;;;;;;;39.98;15.05;;;;;;;0.58;81.01;98293.70;2178542;82;21298;-66
2021/01/01 10:07:54;;;;;;;32.17;10.98;;;;;;;0.60;80.56;98285.91;2178654;82;21718;-65
2021/01/01 10:10:57;;;;;;;36.17;12.55;;;;;;;0.57;80.11;98290.71;2178961;82;21138;-65
2021/01/01 10:13:59;;;;;;;;;;;;;;;0.52;79.97;98292.59;2181486;82;21146;-66
2021/01/01 10:17:01;;;;;;;37.83;13.13;;;;;;;0.59;80.38;98283.78;2178670;82;20400;-65
2021/01/01 10:20:03;;;;;;;39.23;15.83;;;;;;;0.63;79.85;98293.13;2178526;82;21135;-66
2021/01/01 10:23:05;;;;;;;35.95;13.03;;;;;;;0.60;79.95;98294.48;2178526;82;21301;-64
2021/01/01 10:26:08;;;;;;;39.65;14.83;;;;;;;0.50;79.81;98296.52;2168843;82;21270;-64
2021/01/01 10:29:10;;;;;;;41.30;13.88;;;;;;;0.44;80.01;98297.12;2161308;82;21718;-65
2021/01/01 10:32:12;;;;;;;33.58;12.20;;;;;;;0.46;80.38;98292.75;2161212;82;21254;-66
2021/01/01 10:35:14;;;;;;;35.10;12.88;;;;;;;0.47;80.08;98292.70;2161111;82;21146;-68
2021/01/01 10:38:16;;;;;;;33.90;12.60;;;;;;;0.52;80.33;98286.14;2161106;82;21156;-68
2021/01/01 10:41:18;;;;;;;67.45;35.88;;;;;;;0.54;80.47;98283.52;2161088;82;21131;-65
2021/01/01 10:44:21;;;;;;;41.30;16.48;;;;;;;0.55;80.01;98277.02;2161069;82;21131;-65
2021/01/01 10:47:24;;;;;;;41.88;15.15;;;;;;;0.56;80.25;98276.14;2161106;82;21725;-67
2021/01/01 10:50:26;;;;;;;;;;;;;;;0.59;80.13;98283.78;2163505;82;21623;-66
2021/01/01 10:53:28;;;;;;;41.90;15.08;;;;;;;0.59;80.10;98286.37;2161400;82;20122;-70
2021/01/01 10:56:30;;;;;;;51.40;22.45;;;;;;;0.58;80.41;98289.83;2161434;82;21281;-66
2021/01/01 10:59:33;;;;;;;53.02;21.33;;;;;;;0.72;80.50;98284.70;2161148;82;21147;-69
2021/01/01 11:02:35;;;;;;;53.85;21.02;;;;;;;0.76;79.93;98287.17;2161053;82;21178;-66
2021/01/01 11:05:37;;;;;;;72.35;28.57;;;;;;;0.72;79.84;98284.70;2161174;82;21721;-69
2021/01/01 11:08:39;;;;;;;41.45;14.83;;;;;;;0.71;80.20;98289.48;2161481;82;21313;-65
2021/01/01 11:11:42;;;;;;;;;;;;;;;0.73;79.66;98287.69;2163565;82;21728;-65
2021/01/01 11:15:04;;;;;;;48.97;16.87;;;;;;;0.66;79.74;98286.59;2161217;82;20122;-64
2021/01/01 12:24:49;;;;;;;40.10;15.43;;;;;;;0.92;79.34;98286.25;2168219;82;21626;-65
2021/01/01 12:27:51;;;;;;;39.23;15.58;;;;;;;0.82;79.49;98286.11;2177563;82;21277;-71
2021/01/01 12:30:53;;;;;;;43.30;17.30;;;;;;;0.79;79.90;98288.36;2178891;82;21103;-66
2021/01/01 12:33:55;;;;;;;35.98;14.98;;;;;;;0.86;80.02;98295.45;2178638;82;21293;-66
2021/01/01 12:36:57;;;;;;;44.83;17.92;;;;;;;0.85;79.79;98294.63;2178735;82;21748;-65
2021/01/01 12:40:00;;;;;;;58.92;23.18;;;;;;;0.73;79.81;98296.27;2178582;82;21262;-64
2021/01/01 12:43:02;;;;;;;43.08;17.00;;;;;;;0.64;80.03;98297.38;2178739;82;21701;-65
2021/01/01 12:46:04;;;;;;;40.30;15.43;;;;;;;0.56;79.98;98301.95;2178853;82;21154;-65
2021/01/01 12:49:06;;;;;;;39.55;15.00;;;;;;;0.49;80.12;98300.43;2178832;82;21288;-64
2021/01/01 12:52:09;;;;;;;37.90;15.83;;;;;;;0.45;80.30;98297.08;2178591;82;21697;-64
2021/01/01 12:55:11;;;;;;;39.83;16.60;;;;;;;0.54;80.81;98301.13;2178611;82;21284;-64
2021/01/01 12:58:14;;;;;;;44.80;17.80;;;;;;;0.54;80.81;98301.13;2179087;82;21138;-66
2021/01/01 13:01:17;;;;;;;43.40;16.42;;;;;;;0.51;80.32;98314.95;2178905;82;21150;-64
2021/01/01 13:04:19;;;;;;;46.30;17.82;;;;;;;0.43;80.56;98316.06;2178804;82;21261;-64
2021/01/01 13:07:22;;;;;;;43.45;18.27;;;;;;;0.44;80.77;98310.86;2150828;82;21582;-64
2021/01/01 13:10:24;;;;;;;46.98;18.62;;;;;;;0.53;80.76;98309.75;2178559;82;21281;-64
2021/01/01 13:13:26;;;;;;;47.13;18.23;;;;;;;0.55;80.59;98307.13;2178562;82;21138;-64
2021/01/01 13:16:28;;;;;;;45.95;17.82;;;;;;;0.57;80.69;98308.78;2178572;82;21602;-64
2021/01/01 13:19:30;;;;;;;48.55;19.55;;;;;;;0.56;80.78;98312.27;2178543;82;21273;-64
2021/01/01 13:22:33;;;;;;;39.95;15.58;;;;;;;0.63;80.75;98304.75;2178793;82;21143;-65
2021/01/01 13:25:35;;;;;;;41.65;16.73;;;;;;;0.54;80.10;98308.03;2178469;82;21289;-69
2021/01/01 13:28:37;;;;;;;41.15;16.07;;;;;;;0.40;80.42;98316.98;2179062;82;21271;-66
2021/01/01 13:31:39;;;;;;;44.95;18.07;;;;;;;0.33;80.60;98311.59;2178645;82;21733;-64
2021/01/01 13:34:41;;;;;;;47.08;19.23;;;;;;;0.22;80.65;98314.95;2179059;82;21269;-65
2021/01/01 13:37:44;;;;;;;44.18;18.98;;;;;;;0.10;81.04;98316.97;2178458;82;21300;-65
2021/01/01 13:40:46;;;;;;;42.83;17.17;;;;;;;0.16;81.31;98315.50;2178574;82;21297;-64
2021/01/01 13:43:49;;;;;;;44.35;18.10;;;;;;;0.16;81.09;98309.50;2178673;82;21704;-64
2021/01/01 13:46:52;;;;;;;43.02;18.52;;;;;;;0.09;81.16;98306.23;2178996;82;21175;-65
2021/01/01 13:49:55;;;;;;;46.92;18.17;;;;;;;0.07;81.16;98312.31;2178588;82;21740;-66
2021/01/01 13:52:57;;;;;;;48.28;19.02;;;;;;;-0.02;81.35;98311.66;2178431;82;21257;-64
2021/01/01 13:55:59;;;;;;;46.23;17.95;;;;;;;0.01;81.28;98317.19;2178939;82;21173;-65
2021/01/01 13:59:01;;;;;;;45.80;18.15;;;;;;;-0.05;81.39;98315.62;2178631;82;21146;-65
2021/01/01 14:02:04;;;;;;;53.28;21.90;;;;;;;-0.10;81.42;98315.33;2178763;82;21154;-65
2021/01/01 14:05:07;;;;;;;45.08;17.62;;;;;;;-0.08;81.57;98314.41;2178445;82;21284;-65
2021/01/01 14:08:09;;;;;;;53.23;21.23;;;;;;;-0.12;81.43;98308.09;2150606;82;21286;-68
2021/01/01 14:11:12;;;;;;;49.18;20.88;;;;;;;-0.12;81.55;98311.50;2178858;82;21164;-64
2021/01/01 14:14:15;;;;;;;47.27;19.75;;;;;;;-0.03;81.49;98311.70;2178521;82;21280;-65
2021/01/01 14:17:20;;;;;;;47.10;18.37;;;;;;;-0.05;81.36;98318.65;2178850;82;21151;-68
2021/01/01 14:20:22;;;;;;;55.05;23.12;;;;;;;-0.12;81.14;98319.24;2178405;82;21285;-64
2021/01/01 14:23:24;;;;;;;55.05;23.83;;;;;;;-0.23;81.07;98327.27;2178506;82;21281;-64
2021/01/01 14:26:27;;;;;;;60.85;24.92;;;;;;;-0.31;81.22;98330.47;2174057;81;21695;-69
2021/01/01 14:29:29;;;;;;;67.58;29.50;;;;;;;-0.33;81.48;98326.23;2161510;82;21294;-66
2021/01/01 14:32:31;;;;;;;58.00;25.48;;;;;;;-0.31;81.53;98327.05;2161182;82;21282;-65
2021/01/01 14:35:33;;;;;;;58.80;24.52;;;;;;;-0.23;81.53;98328.55;2161571;82;21277;-66
2021/01/01 14:38:35;;;;;;;55.78;22.85;;;;;;;-0.14;81.47;98327.89;2161311;82;21856;-65
2021/01/01 14:41:37;;;;;;;55.45;22.87;;;;;;;-0.14;81.22;98335.20;2161404;82;21278;-64
2021/01/01 14:44:39;;;;;;;56.92;24.77;;;;;;;-0.14;81.29;98328.77;2161082;82;21579;-64
2021/01/01 14:47:44;;;;;;;65.62;26.15;;;;;;;-0.16;81.05;98342.57;2161225;82;21582;-64
2021/01/01 14:50:46;;;;;;;65.05;26.70;;;;;;;-0.20;81.36;98337.49;2160908;82;21143;-65
2021/01/01 14:53:48;;;;;;;60.67;25.88;;;;;;;-0.21;81.11;98342.23;2161327;82;21289;-64
2021/01/01 14:56:51;;;;;;;58.00;24.55;;;;;;;-0.27;81.07;98348.01;2161299;82;21281;-65
2021/01/01 14:59:53;;;;;;;75.60;31.25;;;;;;;-0.39;81.06;98346.13;2161187;82;21289;-70
2021/01/01 15:02:55;;;;;;;75.08;32.13;;;;;;;-0.43;81.35;98347.09;2161528;82;21297;-67
2021/01/01 15:05:57;;;;;;;61.20;24.98;;;;;;;-0.44;81.43;98341.97;2161674;82;21269;-65
2021/01/01 15:08:59;;;;;;;65.05;26.07;;;;;;;-0.49;81.33;98340.77;2161021;82;21171;-64
2021/01/01 15:12:01;;;;;;;58.45;22.98;;;;;;;-0.53;81.47;98339.18;2161356;82;21682;-64